• Join FlightAware (Why Join?)
  • Login
  • US Flag 
01:20AM EDT


 

Airport Tracker/Info


-or-


 

Live Flight TrackerFlight Track Log ✈ CPZ5714 ✈ 17-Jun-2013 ✈ KMSP - KALB

Flight Track Log - Related Links

Times and Time Zones

All times are in EDT time to prevent confusion due to time zone crossing. See the CPZ5714 flight status page for this flight to view local times or setup timezone preferences in your user account.

Time Position Orientation Groundspeed Altitude Reporting Facility
EDT Latitude Longitude Course Direction KTS MPH feet Rate Location/Type
09:15PM 44.9000 -93.2333 65° Northeast 167 192 1,900  Level Minneapolis TRACON
09:16PM 44.9483 -93.2375 357° North 180 207 2,900 1,680 Climbing Minneapolis Center
09:17PM 44.9911 -93.1778 45° Northeast 238 274 5,200 2,520 Climbing Minneapolis Center
09:18PM 45.0552 -92.5654 68° East  Level FlightAware Approximate
09:18PM 45.0247 -93.0811 64° Northeast 270 311 8,200  Level Minneapolis Center
09:19PM 45.0998 -92.4007 70° East  Level FlightAware Approximate
09:19PM 45.0625 -92.9767 63° Northeast 296 341 10,600  Level Minneapolis Center
09:20PM 45.1376 -92.2335 70° East  Level FlightAware Approximate
09:20PM 45.1144 -92.8278 64° Northeast 362 417 12,200  Level Minneapolis Center
09:21PM 45.1826 -92.0690 65° Northeast  Level FlightAware Approximate
09:21PM 45.1625 -92.6914 63° Northeast 385 443 14,400  Level Minneapolis Center
09:23PM 45.2111 -92.5519 64° Northeast 393 452 16,700 1,980 Climbing Minneapolis Center
09:24PM 45.2603 -92.4117 63° Northeast 398 458 18,500 1,740 Climbing Minneapolis Center
09:25PM 45.3067 -92.2625 66° East 413 475 20,300 1,560 Climbing Minneapolis Center
09:26PM 45.3261 -92.0939 81° East 432 497 21,800 1,500 Climbing Minneapolis Center
09:27PM 45.3183 -91.8867 93° East 436 502 23,500 1,440 Climbing Minneapolis Center
09:28PM 45.3069 -91.7083 95° East 449 517 24,800 1,020 Climbing Minneapolis Center
09:29PM 45.2953 -91.5258 95° East 459 528 25,700 840 Climbing Minneapolis Center
09:30PM 45.2878 -91.3769 94° East 468 539 26,600 900 Climbing Minneapolis Center
09:32PM 45.2397 -91.0732 103° East  Level FlightAware Approximate
09:32PM 45.2583 -90.9528 103° East 480 552 28,600  Level Minneapolis Center
09:33PM 45.2458 -90.7631 95° East 484 557 29,800 1,140 Climbing Minneapolis Center
09:34PM 45.2328 -90.5756 96° East 482 555 31,000 1,260 Climbing Minneapolis Center
09:35PM 45.2178 -90.3556 95° East 470 541 32,500 960 Climbing Minneapolis Center
09:36PM 45.2044 -90.1733 96° East 468 539 33,000 240 Climbing Minneapolis Center
09:37PM 45.1900 -89.9853 96° East 477 549 33,000  Level Minneapolis Center
09:38PM 45.1756 -89.7911 96° East 491 565 33,000  Level Minneapolis Center
09:39PM 45.1594 -89.5933 97° East 504 580 33,000  Level Minneapolis Center
09:40PM 45.1414 -89.3586 96° East 503 579 33,000  Level Minneapolis Center
09:41PM 45.1244 -89.1636 97° East 504 580 33,000  Level Minneapolis Center
09:42PM 45.1083 -88.9664 97° East 507 583 33,000  Level Minneapolis Center
09:43PM 45.0917 -88.7694 97° East 507 583 33,000  Level Minneapolis Center
09:44PM 45.0756 -88.5742 97° East 509 586 33,000  Level Minneapolis Center
09:45PM 45.0578 -88.3758 97° East 509 586 33,000  Level Minneapolis Center
09:46PM 45.0383 -88.1786 98° East 508 585 33,000  Level Minneapolis Center
09:47PM 45.0164 -87.9400 97° East 509 586 33,000  Level Minneapolis Center
09:48PM 44.9978 -87.7411 97° East 511 588 33,000  Level Minneapolis Center
09:49PM 44.9797 -87.5422 97° East 511 588 33,000  Level Minneapolis Center
09:50PM 44.9589 -87.3472 99° East 506 582 33,000  Level Minneapolis Center
09:51PM 44.9400 -87.1522 98° East 502 578 33,000  Level Minneapolis Center
09:52PM 44.9236 -86.9953 98° East 506 582 33,000  Level Minneapolis Center
09:53PM 44.8981 -86.7497 98° East 500 575 33,000  Level Minneapolis Center
09:55PM 44.8722 -86.5092 99° East 513 590 33,000  Level Minneapolis Center
09:56PM 44.8519 -86.3086 98° East 517 595 33,000  Level Minneapolis Center
09:57PM 44.8289 -86.1056 99° East 521 600 33,000  Level Minneapolis Center
09:58PM 44.8100 -85.9406 99° East 527 606 33,000  Level Minneapolis Center
09:59PM 44.7786 -85.6569 99° East 526 605 33,000  Level Minneapolis Center
10:00PM 44.7556 -85.4511 99° East 525 604 33,000  Level Minneapolis Center
10:01PM 44.7314 -85.2447 99° East 532 612 33,000  Level Minneapolis Center
10:02PM 44.7069 -85.0361 99° East 539 620 33,000  Level Minneapolis Center
10:03PM 44.6811 -84.8281 100° East 542 624 33,000  Level Minneapolis Center
10:04PM 44.6561 -84.6172 99° East 546 628 33,000  Level Minneapolis Center
10:05PM 44.6183 -84.3206 100° East 551 634 33,000  Level Minneapolis Center
10:06PM 44.5914 -84.1053 100° East 555 639 33,000  Level Minneapolis Center
10:07PM 44.5633 -83.8894 100° East 560 644 33,000  Level Minneapolis Center
10:08PM 44.5358 -83.6742 100° East 562 647 33,000  Level Minneapolis Center
10:09PM 44.5067 -83.4561 101° East 566 651 33,000  Level Minneapolis Center
10:10PM 44.4761 -83.2389 101° East 568 654 33,000  Level Minneapolis Center
10:11PM 44.4475 -83.0217 100° East 569 655 33,000  Level Minneapolis Center
10:12PM 44.4181 -82.8039 101° East 571 657 33,000  Level Minneapolis Center
10:13PM 44.3667 -82.6667 118° Southeast 570 656 33,000  Level Toronto Center
10:13PM 44.3789 -82.5422 82° East 573 659 33,000  Level Minneapolis Center
10:14PM 44.3500 -82.4333 110° East 570 656 33,000  Level Toronto Center
10:15PM 44.3167 -82.2167 102° East 580 667 33,000  Level Toronto Center
10:16PM 44.2833 -81.9833 101° East 580 667 33,000  Level Toronto Center
10:17PM 44.2500 -81.7667 102° East 580 667 33,000  Level Toronto Center
10:18PM 44.2167 -81.5667 103° East 590 679 33,000  Level Toronto Center
10:19PM 44.1833 -81.3333 101° East 580 667 33,000  Level Toronto Center
10:20PM 44.1500 -81.1000 101° East 590 679 33,000  Level Toronto Center
10:21PM 44.1167 -80.8833 102° East 590 679 33,000  Level Toronto Center
10:22PM 44.0833 -80.6500 101° East 590 679 33,000  Level Toronto Center
10:23PM 44.0500 -80.4500 103° East 590 679 33,000  Level Toronto Center
10:24PM 44.0167 -80.2167 101° East 600 690 33,000  Level Toronto Center
10:25PM 43.9667 -79.9833 107° East 600 690 33,000  Level Toronto Center
10:26PM 43.9333 -79.7667 102° East 600 690 33,000  Level Toronto Center
10:27PM 43.9000 -79.5167 100° East 600 690 33,000  Level Toronto Center
10:28PM 43.8500 -79.3167 109° East 600 690 33,000  Level Toronto Center
10:29PM 43.8167 -79.1000 102° East 600 690 33,000  Level Toronto Center
10:30PM 43.7833 -78.8500 100° East 600 690 33,000  Level Toronto Center
10:31PM 43.7500 -78.6333 102° East 600 690 33,000  Level Toronto Center
10:32PM 43.6833 -78.4167 113° Southeast 600 690 33,000  Level Toronto Center
10:33PM 43.6500 -78.1833 101° East 600 690 33,000  Level Toronto Center
10:34PM 43.6233 -77.9967 101° East 600 690 33,000  Level Cleveland Center
10:35PM 43.5828 -77.7747 104° East 600 690 33,000  Level Cleveland Center
10:37PM 43.5047 -77.3761 105° East 606 697 33,000 -300 Level Boston Center
10:38PM 43.4617 -77.1581 105° East 601 692 32,300 -900 Descending Boston Center
10:39PM 43.4203 -76.9458 105° East 591 680 31,300 -1,020 Descending Boston Center
10:40PM 43.3786 -76.7314 105° East 585 673 30,300 -960 Descending Boston Center
10:41PM 43.3436 -76.5433 104° East 578 665 29,400 -660 Descending Boston Center
10:42PM 43.2989 -76.3375 107° East 573 659 29,000 -240 Descending Boston Center
10:43PM 43.2558 -76.1267 106° East 568 654 29,000  Level Boston Center
10:44PM 43.2142 -75.9217 106° East 562 647 29,000 -600 Level Boston Center
10:45PM 43.1631 -75.6797 106° East 562 647 27,700 -2,100 Descending Boston Center
10:46PM 43.1186 -75.4753 107° East 537 618 24,500 -2,880 Descending Boston Center
10:47PM 43.0794 -75.3000 107° East 507 583 22,000 -2,400 Descending Boston Center
10:48PM 43.0478 -75.1392 105° East 470 541 19,700 -2,220 Descending Boston Center
10:49PM 43.0139 -74.9872 107° East 434 499 17,600 -2,160 Descending Boston Center
10:50PM 42.9817 -74.8411 107° East 418 481 15,400 -2,220 Descending Boston Center
10:50PM 42.9625 -74.7553 107° East 395 455 14,200 -1,800 Descending Boston Center
10:51PM 42.9531 -74.7094 106° East 405 466 13,600 -1,980 Descending Boston Center
10:51PM 42.9339 -74.6153 106° East 384 442 12,200 -2,220 Descending Boston Center
10:52PM 42.9206 -74.5608 108° East 383 441 11,400 -1,320 Descending Boston Center
10:52PM 42.9092 -74.4869 102° East 378 435 11,000 -420 Descending Boston Center
10:53PM 42.9103 -74.4331 88° East 378 435 11,000 -600 Level Boston Center
10:53PM 42.9136 -74.3564 87° East 336 387 10,400 -1,320 Descending Boston Center
10:54PM 42.9147 -74.2942 89° East 343 395 9,700 -1,680 Descending Boston Center
10:54PM 42.9178 -74.2347 86° East 315 362 8,700 -1,740 Descending Boston Center
10:55PM 42.9164 -74.1864 92° East 327 376 8,000 -1,920 Descending Boston Center
10:55PM 42.9194 -74.1158 87° East 315 362 6,800 -2,100 Descending Boston Center
10:56PM 42.9225 -74.0561 86° East 310 357 5,900 -1,920 Descending Boston Center
10:56PM 42.9231 -74.0053 89° East 284 327 4,900 -1,740 Descending Boston Center
10:57PM 42.9217 -73.9656 93° East 281 323 4,200 -1,800 Descending Boston Center
10:57PM 42.9244 -73.9089 86° East 234 269 3,100 -1,620 Descending Boston Center
10:58PM 42.9144 -73.8744 112° Southeast 238 274 2,600 -900 Descending Boston Center
10:58PM 42.8981 -73.8486 131° Southeast 198 228 2,300 -300 Descending Boston Center
10:59PM 42.8733 -73.8197 139° Southeast 197 227 2,300 -240 Level Boston Center
10:59PM 42.8506 -73.8136 169° South 190 219 2,100  Descending Boston Center
11:00PM 42.8431 -73.7597 101° East 197 227 2,300 -1,020 Climbing Boston Center
11:00PM 42.8047 -73.8097 224° Southwest 163 188 1,100 -1,260 Descending Boston Center
11:01PM 42.7653 -73.8061 176° South 131 151 500 -600 Descending Boston Center